createdAt,value
2022-11-17T00:00:33.553Z,97.70
2022-11-17T00:01:34.557Z,97.59
2022-11-17T00:02:35.434Z,97.59
2022-11-17T00:03:36.701Z,97.59
2022-11-17T00:04:37.227Z,97.59
2022-11-17T00:05:38.122Z,97.59
2022-11-17T00:06:39.009Z,97.59
2022-11-17T00:07:39.891Z,97.59
2022-11-17T00:08:40.772Z,97.59
2022-11-17T00:09:41.660Z,97.49
2022-11-17T00:10:42.539Z,97.49
2022-11-17T00:11:43.422Z,97.49
2022-11-17T00:12:44.324Z,97.38
2022-11-17T00:13:45.185Z,97.38
2022-11-17T00:14:46.083Z,97.70
2022-11-17T00:15:46.963Z,97.70
2022-11-17T00:16:47.863Z,97.59
2022-11-17T00:17:48.725Z,97.59
2022-11-17T00:18:49.606Z,97.59
2022-11-17T00:19:50.540Z,97.70
2022-11-17T00:20:51.401Z,97.80
2022-11-17T00:21:52.280Z,98.01
2022-11-17T00:22:53.164Z,98.11
2022-11-17T00:23:54.056Z,98.01
2022-11-17T00:24:54.940Z,98.11
2022-11-17T00:25:55.812Z,98.11
2022-11-17T00:26:56.698Z,97.96
2022-11-17T00:27:57.629Z,98.07
2022-11-17T00:28:58.490Z,98.27
2022-11-17T00:29:59.395Z,98.38
2022-11-17T00:31:00.298Z,98.38
2022-11-17T00:32:01.190Z,98.38
2022-11-17T00:33:02.050Z,98.27
2022-11-17T00:34:02.979Z,98.27
2022-11-17T00:35:03.829Z,98.27
2022-11-17T00:36:04.732Z,98.07
2022-11-17T00:37:05.613Z,98.27
2022-11-17T00:38:06.488Z,98.17
2022-11-17T00:39:07.371Z,97.86
2022-11-17T00:40:08.291Z,97.86
2022-11-17T00:41:09.151Z,97.96
2022-11-17T00:42:10.047Z,98.07
2022-11-17T00:43:10.914Z,97.75
2022-11-17T00:44:11.798Z,97.75
2022-11-17T00:45:12.691Z,97.75
2022-11-17T00:46:13.609Z,97.86
2022-11-17T00:47:14.482Z,97.86
2022-11-17T00:48:15.336Z,97.96
2022-11-17T00:49:16.217Z,97.96
2022-11-17T00:50:17.123Z,97.65
2022-11-17T00:51:17.998Z,97.65
2022-11-17T00:52:18.877Z,97.75
2022-11-17T00:53:19.758Z,97.65
2022-11-17T00:54:20.661Z,97.55
2022-11-17T00:55:21.608Z,97.44
2022-11-17T00:56:22.463Z,97.55
2022-11-17T00:57:23.344Z,97.65
2022-11-17T00:58:24.228Z,97.55
2022-11-17T00:59:25.122Z,97.44
2022-11-17T01:00:26.001Z,97.55
2022-11-17T01:01:26.971Z,97.65
2022-11-17T01:02:27.929Z,97.55
2022-11-17T01:03:28.740Z,97.55
2022-11-17T01:04:29.618Z,97.55
2022-11-17T01:05:33.115Z,97.65
2022-11-17T01:06:31.158Z,97.65
2022-11-17T01:07:32.101Z,97.75
2022-11-17T01:08:33.001Z,97.86
2022-11-17T01:09:33.870Z,97.86
2022-11-17T01:10:34.808Z,97.86
2022-11-17T01:11:35.704Z,97.96
2022-11-17T01:12:36.605Z,97.96
2022-11-17T01:13:37.723Z,97.96
2022-11-17T01:14:38.305Z,97.86
2022-11-17T01:15:39.183Z,97.86
2022-11-17T01:16:40.066Z,98.07
2022-11-17T01:17:40.959Z,98.17
2022-11-17T01:18:41.819Z,98.17
2022-11-17T01:19:42.701Z,97.96
2022-11-17T01:20:43.614Z,97.86
2022-11-17T01:21:44.484Z,97.86
2022-11-17T01:22:45.367Z,97.96
2022-11-17T01:23:46.242Z,97.96
2022-11-17T01:24:47.120Z,97.96
2022-11-17T01:25:48.016Z,97.86
2022-11-17T01:26:48.925Z,97.86
2022-11-17T01:27:49.782Z,97.86
2022-11-17T01:28:50.660Z,98.07
2022-11-17T01:29:51.531Z,98.17
2022-11-17T01:30:52.422Z,98.07
2022-11-17T01:31:53.302Z,98.07
2022-11-17T01:32:54.200Z,98.07
2022-11-17T01:33:55.063Z,98.07
2022-11-17T01:34:55.945Z,97.92
2022-11-17T01:35:56.826Z,98.23
2022-11-17T01:36:57.712Z,98.13
2022-11-17T01:37:58.591Z,98.02
2022-11-17T01:38:59.513Z,98.02
2022-11-17T01:40:00.367Z,97.92
2022-11-17T01:41:01.252Z,97.81
2022-11-17T01:42:02.126Z,97.81
2022-11-17T01:43:03.007Z,97.81
2022-11-17T01:44:03.891Z,97.50
2022-11-17T01:45:04.794Z,97.50
2022-11-17T01:46:05.700Z,97.50
2022-11-17T01:47:06.602Z,97.40
2022-11-17T01:48:07.494Z,97.50
2022-11-17T01:49:08.373Z,97.50
2022-11-17T01:50:09.279Z,97.61
2022-11-17T01:51:10.179Z,98.02
2022-11-17T01:52:11.074Z,98.33
2022-11-17T01:53:11.954Z,98.44
2022-11-17T01:54:12.855Z,98.33
2022-11-17T01:55:13.722Z,98.13
2022-11-17T01:56:14.617Z,98.33
2022-11-17T01:57:15.495Z,98.33
2022-11-17T01:58:16.378Z,98.23
2022-11-17T01:59:17.258Z,98.13
2022-11-17T02:00:18.174Z,98.02
2022-11-17T02:01:19.105Z,98.13
2022-11-17T02:02:19.915Z,98.13
2022-11-17T02:03:20.942Z,97.92
2022-11-17T02:04:21.763Z,97.71
2022-11-17T02:05:22.645Z,97.61
2022-11-17T02:06:23.545Z,97.40
2022-11-17T02:07:24.489Z,97.19
2022-11-17T02:08:25.316Z,97.30
2022-11-17T02:09:26.199Z,97.30
2022-11-17T02:10:27.071Z,97.19
2022-11-17T02:11:27.965Z,97.09
2022-11-17T02:12:28.865Z,96.88
2022-11-17T02:13:29.730Z,96.88
2022-11-17T02:14:30.603Z,96.88
2022-11-17T02:15:31.486Z,96.88
2022-11-17T02:16:32.379Z,96.98
2022-11-17T02:17:33.260Z,96.98
2022-11-17T02:18:34.246Z,96.98
2022-11-17T02:19:35.085Z,97.09
2022-11-17T02:20:35.944Z,97.09
2022-11-17T02:21:36.834Z,96.88
2022-11-17T02:22:37.711Z,96.88
2022-11-17T02:23:38.587Z,96.98
2022-11-17T02:24:39.473Z,97.19
2022-11-17T02:25:40.351Z,96.98
2022-11-17T02:26:41.271Z,97.09
2022-11-17T02:27:42.138Z,97.09
2022-11-17T02:28:43.007Z,96.98
2022-11-17T02:29:43.892Z,96.88
2022-11-17T02:30:44.771Z,96.98
2022-11-17T02:31:45.665Z,97.19
2022-11-17T02:32:46.561Z,97.19
2022-11-17T02:33:47.455Z,97.30
2022-11-17T02:34:48.315Z,97.30
2022-11-17T02:35:49.195Z,97.19
2022-11-17T02:36:50.097Z,97.19
2022-11-17T02:37:50.988Z,97.19
2022-11-17T02:38:51.907Z,97.13
2022-11-17T02:39:52.749Z,96.98
2022-11-17T02:40:53.626Z,97.13
2022-11-17T02:41:54.529Z,97.13
2022-11-17T02:42:55.391Z,97.24
2022-11-17T02:43:56.271Z,97.24
2022-11-17T02:44:57.161Z,97.34
2022-11-17T02:45:58.026Z,97.44
2022-11-17T02:46:58.917Z,97.44
2022-11-17T02:47:59.797Z,97.24
2022-11-17T02:49:00.781Z,97.24
2022-11-17T02:50:01.586Z,97.19
2022-11-17T02:51:02.474Z,97.30
2022-11-17T02:52:03.348Z,97.30
2022-11-17T02:53:04.225Z,97.40
2022-11-17T02:54:05.115Z,97.61
2022-11-17T02:55:05.976Z,97.50
2022-11-17T02:56:06.858Z,97.40
2022-11-17T02:57:07.782Z,97.50
2022-11-17T02:58:08.650Z,97.40
2022-11-17T02:59:09.519Z,97.30
2022-11-17T03:00:10.412Z,97.19
2022-11-17T03:01:11.316Z,97.30
2022-11-17T03:02:12.190Z,97.30
2022-11-17T03:03:13.095Z,97.19
2022-11-17T03:04:13.983Z,97.09
2022-11-17T03:05:14.843Z,96.88
2022-11-17T03:06:15.719Z,96.98
2022-11-17T03:07:16.708Z,96.98
2022-11-17T03:08:17.582Z,96.98
2022-11-17T03:09:18.467Z,96.98
2022-11-17T03:10:19.335Z,96.98
2022-11-17T03:11:20.219Z,96.98
2022-11-17T03:12:21.113Z,96.78
2022-11-17T03:13:21.992Z,96.78
2022-11-17T03:14:22.864Z,96.88
2022-11-17T03:15:23.746Z,96.98
2022-11-17T03:16:24.627Z,96.78
2022-11-17T03:17:25.505Z,96.67
2022-11-17T03:18:26.377Z,96.57
2022-11-17T03:19:27.278Z,96.67
2022-11-17T03:20:28.129Z,96.88
2022-11-17T03:21:29.012Z,97.09
2022-11-17T03:22:29.923Z,97.09
2022-11-17T03:23:30.787Z,97.09
2022-11-17T03:24:31.668Z,97.50
2022-11-17T03:25:32.551Z,97.71
2022-11-17T03:26:33.431Z,97.71
2022-11-17T03:27:34.323Z,97.50
2022-11-17T03:28:35.217Z,97.50
2022-11-17T03:29:36.087Z,97.50
2022-11-17T03:30:37.736Z,97.61
2022-11-17T03:31:37.635Z,97.81
2022-11-17T03:32:38.523Z,97.81
2022-11-17T03:33:39.399Z,97.71
2022-11-17T03:34:40.287Z,97.71
2022-11-17T03:35:43.960Z,97.71
2022-11-17T03:36:42.922Z,97.81
2022-11-17T03:37:42.814Z,97.81
2022-11-17T03:38:43.685Z,97.71
2022-11-17T03:39:44.573Z,97.81
2022-11-17T03:40:45.449Z,97.92
2022-11-17T03:41:46.344Z,97.71
2022-11-17T03:42:47.225Z,97.61
2022-11-17T03:43:48.105Z,97.50
2022-11-17T03:44:48.992Z,97.50
2022-11-17T03:45:49.870Z,97.40
2022-11-17T03:46:50.754Z,97.50
2022-11-17T03:47:51.685Z,97.50
2022-11-17T03:48:52.530Z,97.40
2022-11-17T03:49:53.527Z,97.40
2022-11-17T03:50:54.335Z,97.19
2022-11-17T03:51:55.219Z,97.09
2022-11-17T03:52:56.106Z,96.98
2022-11-17T03:53:57.000Z,96.88
2022-11-17T03:54:57.867Z,96.78
2022-11-17T03:55:58.750Z,96.78
2022-11-17T03:56:59.636Z,96.67
2022-11-17T03:58:00.524Z,96.67
2022-11-17T03:59:01.399Z,96.67
2022-11-17T04:00:02.296Z,96.78
2022-11-17T04:01:03.163Z,96.78
2022-11-17T04:02:04.119Z,96.78
2022-11-17T04:03:05.016Z,96.67
2022-11-17T04:04:05.898Z,96.67
2022-11-17T04:05:06.905Z,96.67
2022-11-17T04:06:07.721Z,96.67
2022-11-17T04:07:08.615Z,96.47
2022-11-17T04:08:09.483Z,96.57
2022-11-17T04:09:10.365Z,96.47
2022-11-17T04:10:11.255Z,96.30
2022-11-17T04:11:12.127Z,96.20
2022-11-17T04:12:13.039Z,96.20
2022-11-17T04:13:13.908Z,96.20
2022-11-17T04:14:14.783Z,96.09
2022-11-17T04:15:15.657Z,96.09
2022-11-17T04:16:16.592Z,96.09
2022-11-17T04:17:17.466Z,96.20
2022-11-17T04:18:18.379Z,96.30
2022-11-17T04:19:19.244Z,96.51
2022-11-17T04:20:20.256Z,96.61
2022-11-17T04:21:21.058Z,96.51
2022-11-17T04:22:21.939Z,96.61
2022-11-17T04:23:22.821Z,96.61
2022-11-17T04:24:23.717Z,96.61
2022-11-17T04:25:24.591Z,96.51
2022-11-17T04:26:25.474Z,96.30
2022-11-17T04:27:26.350Z,96.30
2022-11-17T04:28:27.237Z,96.20
2022-11-17T04:29:28.118Z,96.34
2022-11-17T04:30:29.013Z,96.34
2022-11-17T04:31:29.882Z,96.45
2022-11-17T04:32:30.761Z,96.45
2022-11-17T04:33:31.789Z,96.76
2022-11-17T04:34:32.198Z,96.76
2022-11-17T04:35:33.088Z,96.86
2022-11-17T04:36:33.962Z,96.97
2022-11-17T04:37:34.837Z,96.97
2022-11-17T04:38:35.731Z,96.97
2022-11-17T04:39:36.611Z,96.76
2022-11-17T04:40:37.493Z,96.86
2022-11-17T04:41:38.379Z,96.86
2022-11-17T04:42:39.269Z,96.97
2022-11-17T04:43:40.181Z,96.97
2022-11-17T04:44:41.044Z,97.07
2022-11-17T04:45:41.927Z,96.97
2022-11-17T04:46:42.809Z,96.55
2022-11-17T04:47:43.685Z,96.45
2022-11-17T04:48:44.579Z,96.45
2022-11-17T04:49:45.495Z,96.45
2022-11-17T04:50:46.467Z,96.45
2022-11-17T04:51:47.270Z,96.45
2022-11-17T04:52:48.151Z,96.55
2022-11-17T04:53:49.208Z,96.66
2022-11-17T04:54:49.580Z,96.86
2022-11-17T04:55:50.453Z,96.97
2022-11-17T04:56:51.346Z,96.97
2022-11-17T04:57:52.218Z,97.07
2022-11-17T04:58:53.120Z,97.07
2022-11-17T04:59:53.985Z,97.28
2022-11-17T05:00:54.882Z,97.38
2022-11-17T05:01:58.742Z,97.49
2022-11-17T05:02:57.526Z,97.49
2022-11-17T05:03:57.431Z,97.49
2022-11-17T05:04:58.305Z,97.70
2022-11-17T05:05:59.316Z,97.91
2022-11-17T05:07:00.191Z,97.91
2022-11-17T05:08:01.029Z,97.91
2022-11-17T05:09:01.919Z,98.11
2022-11-17T05:10:02.817Z,98.32
2022-11-17T05:11:03.828Z,98.63
2022-11-17T05:12:04.657Z,98.63
2022-11-17T05:13:05.541Z,98.84
2022-11-17T05:14:06.421Z,98.94
2022-11-17T05:15:07.306Z,98.43
2022-11-17T05:16:08.237Z,98.43
2022-11-17T05:17:10.872Z,98.63
2022-11-17T05:18:09.776Z,98.84
2022-11-17T05:19:10.668Z,99.15
2022-11-17T05:20:11.553Z,99.11
2022-11-17T05:21:12.553Z,99.01
2022-11-17T05:22:13.356Z,99.11
2022-11-17T05:23:14.240Z,99.21
2022-11-17T05:24:15.154Z,98.90
2022-11-17T05:25:16.042Z,98.59
2022-11-17T05:26:16.914Z,98.38
2022-11-17T05:27:17.809Z,98.17
2022-11-17T05:28:18.680Z,98.17
2022-11-17T05:29:19.610Z,98.11
2022-11-17T05:30:20.460Z,97.75
2022-11-17T05:31:21.356Z,97.59
2022-11-17T05:32:22.229Z,97.59
2022-11-17T05:33:23.104Z,97.91
2022-11-17T05:34:24.038Z,98.01
2022-11-17T05:35:24.899Z,98.11
2022-11-17T05:36:25.792Z,98.11
2022-11-17T05:37:26.659Z,98.32
2022-11-17T05:38:27.544Z,98.84
2022-11-17T05:39:28.473Z,99.42
2022-11-17T05:40:29.350Z,99.63
2022-11-17T05:41:30.220Z,99.84
2022-11-17T05:42:31.115Z,99.99
2022-11-17T05:43:32.127Z,99.99
2022-11-17T05:44:32.584Z,99.84
2022-11-17T05:45:33.463Z,99.68
2022-11-17T05:46:34.347Z,99.37
2022-11-17T05:47:35.253Z,98.65
2022-11-17T05:48:36.122Z,98.19
2022-11-17T05:49:37.009Z,97.88
2022-11-17T05:50:37.892Z,97.67
2022-11-17T05:51:38.892Z,97.04
2022-11-17T05:52:39.713Z,96.79
2022-11-17T05:53:40.585Z,96.79
2022-11-17T05:54:41.511Z,96.79
2022-11-17T05:55:42.361Z,96.79
2022-11-17T05:56:43.238Z,96.89
2022-11-17T05:57:44.139Z,96.79
2022-11-17T05:58:45.002Z,96.69
2022-11-17T05:59:45.926Z,96.69
2022-11-17T06:00:46.782Z,96.58
2022-11-17T06:01:47.686Z,96.37
2022-11-17T06:02:48.575Z,96.27
2022-11-17T06:03:49.484Z,96.37
2022-11-17T06:04:50.383Z,96.48
2022-11-17T06:05:51.271Z,96.69
2022-11-17T06:06:52.332Z,96.69
2022-11-17T06:07:52.623Z,96.79
2022-11-17T06:08:53.495Z,96.79
2022-11-17T06:09:54.406Z,96.69
2022-11-17T06:10:55.281Z,96.58
2022-11-17T06:11:58.611Z,96.69
2022-11-17T06:12:57.828Z,97.00
2022-11-17T06:13:57.743Z,97.00
2022-11-17T06:14:58.606Z,97.00
2022-11-17T06:15:59.489Z,97.52
2022-11-17T06:17:00.383Z,97.93
2022-11-17T06:18:01.199Z,98.24
2022-11-17T06:19:02.029Z,98.14
2022-11-17T06:20:02.882Z,98.24
2022-11-17T06:21:03.698Z,98.14
2022-11-17T06:22:12.058Z,98.14
2022-11-17T06:23:06.355Z,97.93
2022-11-17T06:24:06.194Z,97.93
2022-11-17T06:25:07.024Z,97.93
2022-11-17T06:26:07.854Z,97.83
2022-11-17T06:27:08.683Z,97.72
2022-11-17T06:28:09.519Z,97.41
2022-11-17T06:29:10.343Z,97.41
2022-11-17T06:30:11.173Z,97.41
2022-11-17T06:31:11.999Z,97.52
2022-11-17T06:32:12.849Z,97.62
2022-11-17T06:33:13.661Z,97.72
2022-11-17T06:34:14.491Z,97.72
2022-11-17T06:35:15.326Z,97.62
2022-11-17T06:36:16.179Z,97.41
2022-11-17T06:37:17.097Z,97.31
2022-11-17T06:38:17.854Z,97.00
2022-11-17T06:39:18.670Z,96.79
2022-11-17T06:40:19.507Z,96.69
2022-11-17T06:41:20.370Z,96.69
2022-11-17T06:42:21.190Z,96.58
2022-11-17T06:43:22.008Z,96.69
2022-11-17T06:44:22.839Z,96.79
2022-11-17T06:45:23.677Z,96.83
2022-11-17T06:46:24.504Z,96.58
2022-11-17T06:47:25.333Z,96.58
2022-11-17T06:48:26.164Z,96.62
2022-11-17T06:49:27.004Z,96.83
2022-11-17T06:50:27.824Z,96.83
2022-11-17T06:51:28.649Z,97.04
2022-11-17T06:52:29.506Z,97.25
2022-11-17T06:53:30.307Z,97.35
2022-11-17T06:54:31.133Z,97.35
2022-11-17T06:55:31.989Z,97.35
2022-11-17T06:56:32.807Z,97.35
2022-11-17T06:57:33.627Z,97.35
2022-11-17T06:58:34.746Z,97.45
2022-11-17T06:59:35.277Z,97.45
2022-11-17T07:00:36.183Z,97.56
2022-11-17T07:01:36.957Z,97.67
2022-11-17T07:02:37.779Z,97.77
2022-11-17T07:03:38.668Z,97.88
2022-11-17T07:04:39.447Z,98.08
2022-11-17T07:05:40.596Z,98.39
2022-11-17T07:06:40.902Z,98.60
2022-11-17T07:07:41.847Z,98.81
2022-11-17T07:08:42.601Z,98.91
2022-11-17T07:09:43.437Z,99.12
2022-11-17T07:10:49.152Z,99.02
2022-11-17T07:11:45.976Z,98.91
2022-11-17T07:12:45.810Z,98.81
2022-11-17T07:13:46.637Z,98.81
2022-11-17T07:14:47.462Z,98.91
2022-11-17T07:15:48.290Z,98.86
2022-11-17T07:16:49.154Z,98.76
2022-11-17T07:17:49.964Z,98.66
2022-11-17T07:18:50.797Z,98.45
2022-11-17T07:19:51.622Z,98.45
2022-11-17T07:20:52.456Z,98.45
2022-11-17T07:21:53.277Z,98.45
2022-11-17T07:22:54.222Z,98.55
2022-11-17T07:23:55.008Z,98.66
2022-11-17T07:24:55.816Z,98.45
2022-11-17T07:25:56.653Z,98.55
2022-11-17T07:26:57.481Z,98.55
2022-11-17T07:27:58.310Z,98.66
2022-11-17T07:28:59.139Z,98.45
2022-11-17T07:29:59.971Z,98.45
2022-11-17T07:31:00.817Z,98.55
2022-11-17T07:32:01.636Z,98.45
2022-11-17T07:33:02.468Z,98.45
2022-11-17T07:34:03.293Z,98.45
2022-11-17T07:35:04.135Z,98.55
2022-11-17T07:36:04.963Z,98.66
2022-11-17T07:37:05.792Z,98.66
2022-11-17T07:38:06.737Z,98.86
2022-11-17T07:39:07.499Z,98.86
2022-11-17T07:40:08.328Z,98.76
2022-11-17T07:41:09.160Z,98.66
2022-11-17T07:42:09.984Z,98.76
2022-11-17T07:43:10.811Z,98.86
2022-11-17T07:44:11.631Z,98.86
2022-11-17T07:45:12.476Z,98.55
2022-11-17T07:46:13.299Z,98.55
2022-11-17T07:47:14.132Z,98.66
2022-11-17T07:48:14.964Z,98.97
2022-11-17T07:49:15.779Z,98.97
2022-11-17T07:50:16.610Z,98.97
2022-11-17T07:51:17.479Z,99.18
2022-11-17T07:52:18.282Z,99.24
2022-11-17T07:53:19.119Z,99.24
2022-11-17T07:54:19.928Z,99.24
2022-11-17T07:55:20.759Z,99.24
2022-11-17T07:56:21.596Z,99.34
2022-11-17T07:57:22.468Z,99.65
2022-11-17T07:58:23.255Z,99.71
2022-11-17T07:59:24.078Z,99.92
2022-11-17T08:00:24.907Z,99.82
2022-11-17T08:01:25.764Z,99.99
2022-11-17T08:02:26.578Z,99.99
2022-11-17T08:03:27.533Z,99.99
2022-11-17T08:04:28.331Z,99.92
2022-11-17T08:05:29.157Z,99.66
2022-11-17T08:06:29.992Z,99.46
2022-11-17T08:07:30.882Z,99.46
2022-11-17T08:08:31.683Z,99.15
2022-11-17T08:09:32.477Z,99.04
2022-11-17T08:10:33.313Z,99.04
2022-11-17T08:11:34.346Z,98.94
2022-11-17T08:12:34.632Z,98.73
2022-11-17T08:13:35.452Z,98.63
2022-11-17T08:14:36.281Z,98.48
2022-11-17T08:15:37.097Z,98.38
2022-11-17T08:16:37.939Z,98.58
2022-11-17T08:17:38.769Z,98.79
2022-11-17T08:18:39.926Z,99.10
2022-11-17T08:19:40.508Z,99.00
2022-11-17T08:20:41.336Z,98.58
2022-11-17T08:21:42.195Z,98.27
2022-11-17T08:22:43.008Z,98.02
2022-11-17T08:23:43.850Z,97.91
2022-11-17T08:24:44.658Z,97.71
2022-11-17T08:25:45.480Z,97.50
2022-11-17T08:26:46.324Z,97.29
2022-11-17T08:27:47.146Z,97.29
2022-11-17T08:28:48.762Z,97.29
2022-11-17T08:29:48.870Z,97.50
2022-11-17T08:30:49.680Z,97.60
2022-11-17T08:31:50.519Z,97.60
2022-11-17T08:32:51.353Z,97.71
2022-11-17T08:33:52.185Z,97.81
2022-11-17T08:34:53.009Z,97.71
2022-11-17T08:35:53.826Z,97.81
2022-11-17T08:36:54.663Z,97.87
2022-11-17T08:37:55.512Z,97.77
2022-11-17T08:38:56.341Z,97.56
2022-11-17T08:39:57.139Z,97.56
2022-11-17T08:40:57.963Z,97.45
2022-11-17T08:41:58.803Z,97.35
2022-11-17T08:43:01.458Z,97.56
2022-11-17T08:44:00.488Z,97.45
2022-11-17T08:45:01.315Z,97.41
2022-11-17T08:46:02.132Z,97.45
2022-11-17T08:47:02.970Z,97.45
2022-11-17T08:48:03.799Z,97.41
2022-11-17T08:49:04.659Z,97.31
2022-11-17T08:50:05.457Z,97.20
2022-11-17T08:51:06.288Z,97.00
2022-11-17T08:52:07.127Z,96.79
2022-11-17T08:53:07.957Z,96.48
2022-11-17T08:54:08.904Z,96.58
2022-11-17T08:55:09.682Z,96.48
2022-11-17T08:56:10.487Z,96.48
2022-11-17T08:57:11.365Z,96.58
2022-11-17T08:58:12.169Z,96.48
2022-11-17T08:59:12.989Z,96.58
2022-11-17T09:00:13.808Z,96.79
2022-11-17T09:01:14.673Z,96.79
2022-11-17T09:02:15.468Z,96.85
2022-11-17T09:03:16.295Z,96.95
2022-11-17T09:04:17.124Z,96.85
2022-11-17T09:05:17.946Z,96.95
2022-11-17T09:06:18.772Z,97.16
2022-11-17T09:07:19.776Z,97.47
2022-11-17T09:08:44.532Z,97.63
2022-11-17T09:09:21.987Z,98.05
2022-11-17T09:10:21.778Z,97.84
2022-11-17T09:11:22.603Z,97.28
2022-11-17T09:12:23.430Z,96.66
2022-11-17T09:13:24.255Z,96.14
2022-11-17T09:14:25.181Z,95.83
2022-11-17T09:15:26.000Z,95.94
2022-11-17T09:16:26.861Z,95.78
2022-11-17T09:17:27.658Z,95.99
2022-11-17T09:18:28.475Z,96.20
2022-11-17T09:19:29.307Z,95.89
2022-11-17T09:20:30.133Z,95.53
2022-11-17T09:21:30.960Z,95.27
2022-11-17T09:22:31.795Z,94.81
2022-11-17T09:23:32.799Z,94.50
2022-11-17T09:24:33.890Z,93.78
2022-11-17T09:25:34.145Z,93.78
2022-11-17T09:26:34.964Z,92.74
2022-11-17T09:27:35.800Z,92.44
2022-11-17T09:28:37.116Z,92.74
2022-11-17T09:29:37.181Z,93.05
2022-11-17T09:30:37.997Z,93.68
2022-11-17T09:31:38.895Z,94.09
2022-11-17T09:32:39.704Z,94.09
2022-11-17T09:33:40.533Z,94.09
2022-11-17T09:34:41.389Z,93.98
2022-11-17T09:35:42.195Z,93.94
2022-11-17T09:36:43.019Z,93.73
2022-11-17T09:37:43.855Z,93.32
2022-11-17T09:38:44.676Z,93.43
2022-11-17T09:39:45.620Z,93.32
2022-11-17T09:40:46.531Z,92.60
2022-11-17T09:41:47.297Z,92.40
2022-11-17T09:42:48.127Z,91.67
2022-11-17T09:43:48.957Z,92.08
2022-11-17T09:44:49.773Z,92.76
2022-11-17T09:45:50.600Z,92.66
2022-11-17T09:46:51.419Z,92.66
2022-11-17T09:48:02.231Z,92.76
2022-11-17T09:48:54.325Z,92.66
2022-11-17T09:49:58.697Z,92.66
2022-11-17T09:50:55.497Z,92.97
2022-11-17T09:51:55.313Z,92.55
2022-11-17T09:52:56.150Z,91.28
2022-11-17T09:53:56.978Z,89.52
2022-11-17T09:54:57.914Z,89.22
2022-11-17T09:55:58.665Z,87.26
2022-11-17T09:56:59.484Z,85.19
2022-11-17T09:58:00.322Z,86.43
2022-11-17T09:59:01.141Z,84.99
2022-11-17T10:00:01.967Z,84.78
2022-11-17T10:01:02.786Z,85.09
2022-11-17T10:02:03.662Z,84.36
2022-11-17T10:03:04.444Z,84.88
2022-11-17T10:04:05.270Z,85.05
2022-11-17T10:05:06.094Z,85.36
2022-11-17T10:06:06.911Z,85.15
2022-11-17T10:07:07.760Z,85.57
2022-11-17T10:08:08.562Z,85.67
2022-11-17T10:09:09.373Z,84.94
2022-11-17T10:10:10.316Z,83.67
2022-11-17T10:11:11.093Z,83.77
2022-11-17T10:12:11.935Z,84.08
2022-11-17T10:13:12.769Z,85.83
2022-11-17T10:14:13.597Z,86.97
2022-11-17T10:15:14.421Z,87.69
2022-11-17T10:16:15.282Z,88.06
2022-11-17T10:17:16.128Z,88.68
2022-11-17T10:18:17.007Z,89.09
2022-11-17T10:19:17.524Z,89.91
2022-11-17T10:20:18.373Z,90.33
2022-11-17T10:21:19.201Z,90.59
2022-11-17T10:22:20.995Z,90.90
2022-11-17T10:23:20.879Z,91.42
2022-11-17T10:24:21.707Z,91.62
2022-11-17T10:25:22.639Z,91.93
2022-11-17T10:26:23.395Z,91.93
2022-11-17T10:27:24.372Z,91.06
2022-11-17T10:28:25.147Z,90.34
2022-11-17T10:29:26.020Z,89.42
2022-11-17T10:30:26.807Z,88.39
2022-11-17T10:31:27.629Z,87.77
2022-11-17T10:32:28.455Z,86.70
2022-11-17T10:33:29.370Z,83.62
2022-11-17T10:34:34.116Z,83.11
2022-11-17T10:35:31.890Z,84.64
2022-11-17T10:36:31.727Z,85.47
2022-11-17T10:37:32.567Z,86.08
2022-11-17T10:38:33.534Z,86.40
2022-11-17T10:39:34.359Z,86.29
2022-11-17T10:40:35.214Z,85.68
2022-11-17T10:41:36.012Z,85.16
2022-11-17T10:42:36.836Z,85.06
2022-11-17T10:43:38.027Z,86.08
2022-11-17T10:44:38.543Z,86.40
2022-11-17T10:45:39.364Z,86.60
2022-11-17T10:46:46.354Z,86.60
2022-11-17T10:47:41.907Z,86.08
2022-11-17T10:48:41.744Z,86.40
2022-11-17T10:49:42.565Z,86.80
2022-11-17T10:50:43.393Z,87.12
2022-11-17T10:51:44.212Z,87.32
2022-11-17T10:52:45.041Z,87.84
2022-11-17T10:53:47.140Z,88.45
2022-11-17T10:54:46.759Z,88.66
2022-11-17T10:55:47.632Z,88.51
2022-11-17T10:56:48.419Z,88.51
2022-11-17T10:57:49.239Z,88.41
2022-11-17T10:58:50.209Z,88.20
2022-11-17T10:59:56.557Z,88.00
2022-11-17T11:00:52.818Z,87.90
2022-11-17T11:01:52.624Z,87.90
2022-11-17T11:02:53.452Z,88.00
2022-11-17T11:03:54.284Z,87.90
2022-11-17T11:04:55.133Z,88.20
2022-11-17T11:05:55.951Z,88.51
2022-11-17T11:06:56.836Z,88.62
2022-11-17T11:07:57.637Z,88.62
2022-11-17T11:08:58.472Z,88.62
2022-11-17T11:09:59.293Z,88.41
2022-11-17T11:11:00.193Z,88.20
2022-11-17T11:12:00.988Z,88.20
2022-11-17T11:13:01.816Z,88.31
2022-11-17T11:14:02.646Z,88.31
2022-11-17T11:15:03.474Z,88.41
2022-11-17T11:16:04.293Z,88.41
2022-11-17T11:17:05.133Z,88.51
2022-11-17T11:18:05.958Z,88.10
2022-11-17T11:19:06.806Z,88.10
2022-11-17T11:20:07.615Z,88.20
2022-11-17T11:21:08.444Z,88.20
2022-11-17T11:22:09.283Z,87.69
2022-11-17T11:23:10.110Z,87.90
2022-11-17T11:24:10.939Z,88.00
2022-11-17T11:25:11.768Z,87.69
2022-11-17T11:26:12.605Z,87.28
2022-11-17T11:27:13.406Z,86.97
2022-11-17T11:28:14.227Z,86.56
2022-11-17T11:29:15.064Z,85.94
2022-11-17T11:30:15.976Z,85.53
2022-11-17T11:31:16.813Z,85.63
2022-11-17T11:32:17.633Z,85.33
2022-11-17T11:33:18.461Z,84.91
2022-11-17T11:34:19.290Z,84.67
2022-11-17T11:35:20.125Z,84.67
2022-11-17T11:36:20.937Z,84.05
2022-11-17T11:37:21.765Z,84.88
2022-11-17T11:38:22.584Z,84.67
2022-11-17T11:39:23.422Z,83.95
2022-11-17T11:40:24.243Z,84.26
2022-11-17T11:41:25.096Z,84.56
2022-11-17T11:42:25.898Z,85.18
2022-11-17T11:43:26.726Z,85.60
2022-11-17T11:44:27.556Z,86.00
2022-11-17T11:45:28.382Z,86.00
2022-11-17T11:46:29.204Z,86.32
2022-11-17T11:47:30.030Z,86.62
2022-11-17T11:48:30.850Z,86.93
2022-11-17T11:49:31.688Z,87.24
2022-11-17T11:50:35.379Z,87.34
2022-11-17T11:51:34.219Z,87.65
2022-11-17T11:52:34.040Z,87.24
2022-11-17T11:53:34.858Z,87.24
2022-11-17T11:54:40.128Z,87.65
2022-11-17T11:55:36.647Z,87.96
2022-11-17T11:56:37.493Z,88.47
2022-11-17T11:57:38.293Z,89.19
2022-11-17T11:58:39.125Z,89.70
2022-11-17T11:59:39.951Z,90.32
2022-11-17T12:00:40.778Z,90.63
2022-11-17T12:01:41.609Z,91.04
2022-11-17T12:02:42.587Z,91.35
2022-11-17T12:03:43.413Z,91.35
2022-11-17T12:04:44.215Z,92.17
2022-11-17T12:05:45.056Z,91.97
2022-11-17T12:06:45.898Z,91.66
2022-11-17T12:07:46.886Z,91.76
2022-11-17T12:08:47.688Z,91.86
2022-11-17T12:09:48.527Z,91.66
2022-11-17T12:10:49.361Z,91.55
2022-11-17T12:11:50.277Z,91.45
2022-11-17T12:12:51.033Z,91.55
2022-11-17T12:13:54.308Z,92.07
2022-11-17T12:14:52.839Z,92.17
2022-11-17T12:15:53.685Z,92.48
2022-11-17T12:16:54.603Z,93.30
2022-11-17T12:17:55.369Z,93.61
2022-11-17T12:18:56.217Z,93.30
2022-11-17T12:19:57.089Z,92.58
2022-11-17T12:20:57.944Z,92.33
2022-11-17T12:21:58.762Z,91.51
2022-11-17T12:22:59.594Z,90.69
2022-11-17T12:24:00.412Z,91.04
2022-11-17T12:25:01.280Z,91.31
2022-11-17T12:26:02.125Z,91.93
2022-11-17T12:27:03.182Z,92.13
2022-11-17T12:28:03.948Z,91.72
2022-11-17T12:29:04.784Z,91.10
2022-11-17T12:30:05.612Z,89.87
2022-11-17T12:31:10.024Z,89.97
2022-11-17T12:32:07.274Z,90.28
2022-11-17T12:33:08.138Z,90.28
2022-11-17T12:34:09.491Z,89.97
2022-11-17T12:35:09.968Z,89.56
2022-11-17T12:36:10.788Z,88.95
2022-11-17T12:37:11.616Z,88.74
2022-11-17T12:38:12.437Z,88.43
2022-11-17T12:39:13.262Z,88.33
2022-11-17T12:40:14.091Z,89.15
2022-11-17T12:41:14.918Z,89.46
2022-11-17T12:42:15.758Z,89.76
2022-11-17T12:43:16.570Z,90.08
2022-11-17T12:44:17.385Z,90.38
2022-11-17T12:45:18.221Z,90.48
2022-11-17T12:46:19.040Z,90.69
2022-11-17T12:47:19.866Z,91.00
2022-11-17T12:48:33.449Z,91.51
2022-11-17T12:49:22.447Z,91.10
2022-11-17T12:50:22.229Z,91.31
2022-11-17T12:51:23.055Z,91.41
2022-11-17T12:52:23.875Z,91.72
2022-11-17T12:53:24.704Z,92.33
2022-11-17T12:54:25.523Z,92.44
2022-11-17T12:55:26.361Z,92.13
2022-11-17T12:56:27.189Z,91.51
2022-11-17T12:57:28.031Z,90.59
2022-11-17T12:58:28.827Z,89.97
2022-11-17T12:59:29.658Z,89.66
2022-11-17T13:00:30.485Z,89.04
2022-11-17T13:01:31.412Z,89.25
2022-11-17T13:02:32.274Z,89.46
2022-11-17T13:03:33.099Z,89.56